CYSC

Details ICAO CYSC (YSC)
Name SHERBROOKE
Region Canada
Timezone America/Montreal (UTC-5.0)
Plans Departing 17
Arriving 22
Stats Elevation 792 ft / 241 m (AMSL)
Location 45.438492° -71.691369°
Runways 1
Magnetic Variation 15.266° W
Sunrise 2017-12-18 12:23:21 UTC / 2017-12-18 07:23:21 Local
Sunset 2017-12-18 21:06:18 UTC / 2017-12-18 16:06:18 Local
Advertisement - Login to hide

Runways

ID Width Length Bearing (true) Bearing (mag) Surface Threshold Offset Overrun Length
13 150 ft / 46 m 5,988 ft / 1,825 m 118.88° 134.15° Asphalt 0 ft / 0 m 0 ft / 0 m
31 150 ft / 46 m 5,988 ft / 1,825 m 298.90° 314.17° Asphalt 0 ft / 0 m 0 ft / 0 m

Map

Weather


0- 5 10 15 20 25 30 35+ Temperature / ° C

Clouds and Precipitation
Forecast for 2017-12-18 06:00 UTC. Updated 24 minutes ago

Ground ~20,000 ft ~40,000 ft Winds

METAR

CYSC 180500Z AUTO 09005KT 9SM FEW250 M21/M24 A3019 RMK SLP250

TAF

TAF CYSC 172340Z 1800/1803 VRB03KT P6SM FEW250 RMK FCST BASED ON AUTO OBS. NXT FCST WILL BE ISSUED AT 181045Z

Frequencies

Recorded 126.25 MHz AWOS
Tower 123.50 MHz MF
Unicom 123.50 MHz CTAF/UNICOM
Warning: Do not use this data for real-world aviation or navigation. No guarantee of current accuracy is given.